ADDS METAR Data INFO
IDs: Format: Raw Decoded Include TAF

Data at: 0751 UTC 17 Oct 2017

KHDN 170656Z AUTO 10011KT 10SM CLR 03/M12 A3041 RMK AO2 SLP266 T00331122
KHDN 170556Z AUTO 11005KT 10SM CLR 03/M13 A3041 RMK AO2 SLP269 T00331128 10161 20022 401891011 51005
KHDN 170456Z AUTO 10012KT 10SM CLR 04/M12 A3041 RMK AO2 SLP277 T00441122
KHDN 170356Z AUTO 00000KT 10SM CLR 06/M14 A3040 RMK AO2 SLP284 T00561139
KHDN 170256Z AUTO 20003KT 10SM CLR 06/M14 A3039 RMK AO2 SLP286 T00561139 52004 TSNO
KHDN 170156Z AUTO 21003KT 10SM CLR 09/M15 A3039 RMK AO2 SLP284 T00891150
KHDN 170056Z AUTO 17005KT 10SM CLR 13/M16 A3038 RMK AO2 SLP271 T01331156
KHDN 162356Z AUTO 28005KT 10SM CLR 16/M16 A3038 RMK AO2 SLP260 T01611156 10189 20139 55001
KHDN 162256Z AUTO 29011KT 10SM CLR 18/M18 A3038 RMK AO2 SLP256 T01781178
KHDN 162156Z AUTO 30012G17KT 10SM CLR 18/M16 A3038 RMK AO2 SLP254 T01831161
KHDN 162056Z AUTO 30010KT 10SM CLR 18/M14 A3038 RMK AO2 SLP255 T01831144 56023
KHDN 161956Z AUTO 28011G18KT 10SM CLR 17/M14 A3040 RMK AO2 SLP264 T01721144
KHDN 161856Z AUTO VRB04KT 10SM CLR 16/M10 A3044 RMK AO2 SLP278 T01561100 TSNO
KHDN 161756Z AUTO 08003KT 10SM CLR 14/M09 A3046 RMK AO2 SLP287 T01441089 10144 21011 58010
KHDN 161656Z AUTO 11005KT 10SM CLR 09/M07 A3048 RMK AO2 SLP307 T00941072
KHDN 161556Z AUTO 10011KT 10SM CLR 05/M08 A3050 RMK AO2 SLP319 T00501083
KHDN 161456Z AUTO 10010KT 10SM CLR 03/M09 A3050 RMK AO2 SLP332 T00281089 53005
KHDN 161356Z AUTO 10010KT 10SM CLR 00/M08 A3049 RMK AO2 SLP327 T00001083 FZRANO
KHDN 161256Z AUTO 10010KT 10SM CLR M01/M08 A3048 RMK AO2 SLP312 T10061083 FZRANO
KHDN 161156Z AUTO 10011KT 10SM CLR 01/M09 A3048 RMK AO2 SLP303 T00061089 10028 20000 55002 FZRANO
KHDN 161056Z AUTO 10010KT 10SM CLR 00/M09 A3048 RMK AO2 SLP302 T00001089 FZRANO
KHDN 160956Z AUTO 11008KT 10SM CLR 01/M09 A3048 RMK AO2 SLP300 T00061089 FZRANO
KHDN 160856Z AUTO 11009KT 10SM CLR 00/M09 A3049 RMK AO2 SLP308 T00001089 58002 FZRANO
KHDN 160756Z AUTO 10008KT 10SM CLR 01/M09 A3049 RMK AO2 SLP312 T00111089 FZRANO
KHDN 160656Z AUTO 11010KT 10SM CLR 02/M09 A3049 RMK AO2 SLP312 T00171089 FZRANO
KHDN 160556Z AUTO 11012KT 10SM CLR 03/M09 A3050 RMK AO2 SLP317 T00281089 10133 20011 401441056 58002
KHDN 160456Z AUTO 10009KT 10SM CLR 04/M09 A3051 RMK AO2 SLP326 T00391089 TSNO
KHDN 160356Z AUTO 10008KT 10SM CLR 04/M09 A3051 RMK AO2 SLP336 T00441089
KHDN 160256Z AUTO 23004KT 10SM CLR 03/M09 A3050 RMK AO2 SLP346 T00281089 53008
KHDN 160156Z AUTO 22005KT 10SM CLR 07/M09 A3049 RMK AO2 SLP339 T00671094
KHDN 160056Z AUTO 00000KT 10SM CLR 12/M11 A3048 RMK AO2 SLP321 T01171111
KHDN 152356Z AUTO 32003KT 10SM CLR 13/M11 A3047 RMK AO2 SLP315 T01331111 10144 20083 56009
KHDN 152256Z AUTO 26005KT 10SM CLR 14/M11 A3048 RMK AO2 SLP315 T01441111
KHDN 152156Z AUTO VRB05KT 10SM CLR 14/M11 A3049 RMK AO2 SLP317 T01391111
KHDN 152056Z AUTO VRB03KT 10SM CLR 13/M12 A3051 RMK AO2 SLP327 T01331117 58024
KHDN 151956Z AUTO 36005KT 10SM CLR 11/M12 A3054 RMK AO2 SLP343 T01111117